Time;durP1;ratioP1;P1;durP2;ratioP2;P2;SDS_P1;SDS_P2;PMS_P1;PMS_P2;Temp;Humidity;BMP_temperature;BMP_pressure;BME280_temperature;BME280_humidity;BME280_pressure;Samples;Min_cycle;Max_cycle;Signal;HPM_P1;HPM_P2
2023/08/26 00:00:30;;;;;;;13.77;12.30;;;;;;;;;;5055420;28;20410;-74
2023/08/26 00:02:56;;;;;;;12.90;11.80;;;;;;;;;;5052553;28;20379;-74
2023/08/26 00:05:21;;;;;;;15.20;13.32;;;;;;;;;;5056090;28;20035;-76
2023/08/26 00:07:47;;;;;;;14.25;12.95;;;;;;;;;;5054794;28;20073;-76
2023/08/26 00:10:12;;;;;;;14.65;13.30;;;;;;;;;;5053906;28;20068;-76
2023/08/26 00:12:38;;;;;;;13.30;12.10;;;;;;;;;;5035640;28;20033;-74
2023/08/26 00:15:03;;;;;;;13.45;12.15;;;;;;;;;;5052164;28;20024;-75
2023/08/26 00:17:29;;;;;;;13.30;11.95;;;;;;;;;;5033366;28;20024;-75
2023/08/26 00:19:54;;;;;;;13.00;11.77;;;;;;;;;;5054094;28;20454;-75
2023/08/26 00:22:20;;;;;;;12.45;11.32;;;;;;;;;;5052820;28;20032;-74
2023/08/26 00:24:47;;;;;;;12.68;11.48;;;;;;;;;;5053622;28;20025;-74
2023/08/26 00:27:12;;;;;;;12.80;11.52;;;;;;;;;;5054262;28;20036;-74
2023/08/26 00:29:38;;;;;;;13.63;12.23;;;;;;;;;;5054987;28;20020;-74
2023/08/26 00:32:03;;;;;;;12.02;10.93;;;;;;;;;;5051984;28;20128;-75
2023/08/26 00:34:29;;;;;;;12.35;11.10;;;;;;;;;;5053388;28;20029;-74
2023/08/26 00:36:54;;;;;;;14.20;11.10;;;;;;;;;;5050230;28;20039;-76
2023/08/26 00:39:19;;;;;;;12.77;11.40;;;;;;;;;;5053591;28;20437;-73
2023/08/26 00:41:45;;;;;;;12.43;11.10;;;;;;;;;;5056566;28;20793;-74
2023/08/26 00:44:10;;;;;;;13.20;11.30;;;;;;;;;;5058834;28;20397;-76
2023/08/26 00:46:36;;;;;;;12.32;11.00;;;;;;;;;;5050655;28;20052;-76
2023/08/26 00:49:01;;;;;;;13.23;10.43;;;;;;;;;;5037874;28;20033;-74
2023/08/26 00:51:27;;;;;;;12.05;10.80;;;;;;;;;;5038658;28;20024;-76
2023/08/26 00:53:52;;;;;;;11.60;10.40;;;;;;;;;;5037643;28;20356;-75
2023/08/26 00:56:18;;;;;;;12.15;11.00;;;;;;;;;;5039658;28;20104;-74
2023/08/26 00:58:43;;;;;;;14.23;10.30;;;;;;;;;;5038489;28;20104;-77
2023/08/26 01:01:09;;;;;;;12.25;11.15;;;;;;;;;;5037114;28;20063;-75
2023/08/26 01:03:34;;;;;;;12.65;11.32;;;;;;;;;;5038237;28;20494;-73
2023/08/26 01:06:00;;;;;;;12.52;11.25;;;;;;;;;;5036948;28;20083;-74
2023/08/26 01:08:26;;;;;;;12.23;11.13;;;;;;;;;;5038846;28;20029;-73
2023/08/26 01:11:02;;;;;;;13.93;11.00;;;;;;;;;;5036208;28;20108;-76
2023/08/26 01:13:35;;;;;;;13.90;10.88;;;;;;;;;;5038133;28;20083;-73
2023/08/26 01:16:02;;;;;;;13.05;11.68;;;;;;;;;;5037593;28;20433;-74
2023/08/26 01:18:28;;;;;;;15.73;11.68;;;;;;;;;;5038729;28;20017;-74
2023/08/26 01:20:54;;;;;;;16.08;12.02;;;;;;;;;;5038885;28;20397;-73
2023/08/26 01:23:21;;;;;;;12.20;11.18;;;;;;;;;;5036870;28;20416;-74
2023/08/26 01:25:46;;;;;;;12.82;11.52;;;;;;;;;;5034191;28;20033;-74
2023/08/26 01:28:13;;;;;;;13.45;11.75;;;;;;;;;;5020525;28;20033;-74
2023/08/26 01:30:39;;;;;;;12.02;10.57;;;;;;;;;;5037228;28;20113;-73
2023/08/26 01:33:17;;;;;;;13.52;11.55;;;;;;;;;;5035688;28;20100;-73
2023/08/26 01:35:46;;;;;;;11.95;10.75;;;;;;;;;;5038353;28;20052;-73
2023/08/26 01:38:12;;;;;;;12.73;10.82;;;;;;;;;;5036345;28;20460;-73
2023/08/26 01:40:38;;;;;;;14.00;10.68;;;;;;;;;;5037068;28;20099;-74
2023/08/26 01:43:04;;;;;;;11.60;10.52;;;;;;;;;;5038035;28;20029;-73
2023/08/26 01:45:29;;;;;;;12.60;11.40;;;;;;;;;;5037592;28;20024;-74
2023/08/26 01:47:55;;;;;;;12.38;11.07;;;;;;;;;;5054423;28;20235;-73
2023/08/26 01:50:20;;;;;;;16.17;11.57;;;;;;;;;;5056910;28;20135;-72
2023/08/26 01:52:45;;;;;;;13.93;11.60;;;;;;;;;;5057294;28;20035;-72
2023/08/26 01:55:11;;;;;;;13.20;11.88;;;;;;;;;;5055184;28;20025;-73
2023/08/26 01:57:36;;;;;;;12.27;10.93;;;;;;;;;;5055918;28;20029;-72
2023/08/26 02:00:01;;;;;;;11.68;10.57;;;;;;;;;;5056737;28;20111;-72
2023/08/26 02:02:27;;;;;;;12.35;10.60;;;;;;;;;;5053114;28;20075;-73
2023/08/26 02:04:52;;;;;;;11.93;10.73;;;;;;;;;;5055729;28;20451;-75
2023/08/26 02:07:18;;;;;;;11.95;10.75;;;;;;;;;;5055768;28;20351;-72
2023/08/26 02:09:44;;;;;;;12.23;11.02;;;;;;;;;;5054371;28;20039;-73
2023/08/26 02:12:09;;;;;;;12.43;11.18;;;;;;;;;;5055440;28;20025;-72
2023/08/26 02:14:34;;;;;;;12.25;11.05;;;;;;;;;;5055695;28;20070;-73
2023/08/26 02:17:00;;;;;;;12.25;11.00;;;;;;;;;;5055666;28;20032;-73
2023/08/26 02:19:25;;;;;;;12.18;10.98;;;;;;;;;;5055598;28;20031;-73
2023/08/26 02:21:51;;;;;;;12.75;11.45;;;;;;;;;;5055333;28;20021;-72
2023/08/26 02:24:17;;;;;;;13.07;11.82;;;;;;;;;;5052000;28;20036;-72
2023/08/26 02:26:42;;;;;;;12.60;11.40;;;;;;;;;;5054882;28;20028;-74
2023/08/26 02:29:07;;;;;;;12.35;11.18;;;;;;;;;;5055269;28;20029;-73
2023/08/26 02:31:33;;;;;;;12.98;11.20;;;;;;;;;;5055226;28;20440;-73
2023/08/26 02:33:58;;;;;;;11.88;10.68;;;;;;;;;;5056009;28;20351;-74
2023/08/26 02:36:24;;;;;;;11.38;10.27;;;;;;;;;;5054151;28;20024;-73
2023/08/26 02:38:49;;;;;;;13.25;11.85;;;;;;;;;;5050984;28;20033;-73
2023/08/26 02:41:14;;;;;;;13.93;11.65;;;;;;;;;;5053873;28;20407;-72
2023/08/26 02:43:40;;;;;;;12.40;11.20;;;;;;;;;;5053209;28;20075;-72
2023/08/26 02:46:05;;;;;;;13.18;11.80;;;;;;;;;;5010248;28;1280461;-73
2023/08/26 02:48:31;;;;;;;12.75;11.45;;;;;;;;;;5056290;28;20039;-74
2023/08/26 02:50:57;;;;;;;12.98;11.43;;;;;;;;;;5056509;28;20056;-72
2023/08/26 02:53:23;;;;;;;12.98;11.75;;;;;;;;;;5057583;28;20475;-72
2023/08/26 02:55:48;;;;;;;12.23;11.02;;;;;;;;;;5054971;28;20033;-75
2023/08/26 02:58:14;;;;;;;12.38;11.15;;;;;;;;;;5055227;28;20020;-72
2023/08/26 03:00:40;;;;;;;12.50;11.30;;;;;;;;;;5054541;28;20024;-74
2023/08/26 03:03:05;;;;;;;11.95;10.77;;;;;;;;;;5053273;28;20041;-75
2023/08/26 03:05:30;;;;;;;12.88;10.75;;;;;;;;;;5053864;28;20014;-74
2023/08/26 03:07:56;;;;;;;12.23;10.95;;;;;;;;;;5054555;28;20033;-74
2023/08/26 03:10:21;;;;;;;11.50;10.40;;;;;;;;;;5055849;28;20043;-72
2023/08/26 03:12:46;;;;;;;11.63;10.63;;;;;;;;;;5055502;28;20039;-72
2023/08/26 03:15:12;;;;;;;12.82;10.30;;;;;;;;;;5055823;28;20154;-73
2023/08/26 03:17:37;;;;;;;12.27;10.98;;;;;;;;;;5057031;28;20126;-72
2023/08/26 03:20:03;;;;;;;11.43;10.32;;;;;;;;;;5055742;28;20530;-72
2023/08/26 03:22:28;;;;;;;11.57;10.52;;;;;;;;;;5056830;28;20016;-75
2023/08/26 03:24:54;;;;;;;12.73;11.52;;;;;;;;;;5053801;28;20355;-75
2023/08/26 03:27:19;;;;;;;17.75;11.00;;;;;;;;;;5054598;28;20066;-75
2023/08/26 03:29:44;;;;;;;12.93;11.63;;;;;;;;;;5053427;28;20032;-75
2023/08/26 03:32:10;;;;;;;16.90;11.15;;;;;;;;;;5054578;28;20028;-75
2023/08/26 03:34:35;;;;;;;13.32;12.13;;;;;;;;;;5054315;28;20036;-75
2023/08/26 03:37:00;;;;;;;13.23;12.05;;;;;;;;;;5054961;28;20021;-77
2023/08/26 03:39:26;;;;;;;13.98;12.70;;;;;;;;;;5052881;28;20024;-75
2023/08/26 03:41:51;;;;;;;13.82;12.52;;;;;;;;;;5055725;28;20364;-75
2023/08/26 03:44:17;;;;;;;13.70;12.35;;;;;;;;;;5054711;28;20067;-75
2023/08/26 03:46:43;;;;;;;12.70;10.95;;;;;;;;;;5043159;28;20060;-75
2023/08/26 03:49:08;;;;;;;11.20;9.98;;;;;;;;;;5033123;28;20172;-75
2023/08/26 03:51:34;;;;;;;12.43;11.30;;;;;;;;;;5036446;28;20124;-74
2023/08/26 03:53:59;;;;;;;11.45;10.35;;;;;;;;;;5034912;28;20047;-74
2023/08/26 03:56:24;;;;;;;13.18;11.40;;;;;;;;;;5035808;28;20040;-74
2023/08/26 03:58:52;;;;;;;12.55;9.95;;;;;;;;;;5037001;28;20029;-75
2023/08/26 04:01:17;;;;;;;13.85;10.85;;;;;;;;;;5035387;28;20175;-75
2023/08/26 04:03:42;;;;;;;11.90;10.73;;;;;;;;;;5037118;28;20108;-74
2023/08/26 04:06:08;;;;;;;11.80;10.43;;;;;;;;;;5035078;28;20034;-74
2023/08/26 04:08:33;;;;;;;12.13;10.07;;;;;;;;;;5035498;28;20025;-76
2023/08/26 04:11:00;;;;;;;11.73;9.80;;;;;;;;;;5034392;28;20024;-76
2023/08/26 04:13:26;;;;;;;15.30;9.95;;;;;;;;;;5034751;28;20036;-77
2023/08/26 04:15:56;;;;;;;12.13;10.93;;;;;;;;;;5034075;28;20029;-76
2023/08/26 04:18:22;;;;;;;12.00;10.80;;;;;;;;;;5035204;28;20017;-76
2023/08/26 04:20:47;;;;;;;12.65;11.48;;;;;;;;;;5034898;28;20363;-76
2023/08/26 04:23:12;;;;;;;12.43;11.20;;;;;;;;;;5035192;28;20037;-76
2023/08/26 04:25:39;;;;;;;16.25;11.45;;;;;;;;;;5035843;28;20021;-76
2023/08/26 04:28:04;;;;;;;14.02;12.55;;;;;;;;;;5035289;28;20024;-76
2023/08/26 04:30:30;;;;;;;13.27;11.98;;;;;;;;;;5035868;28;20025;-77
2023/08/26 04:32:55;;;;;;;13.23;11.82;;;;;;;;;;5036806;28;20508;-76
2023/08/26 04:35:21;;;;;;;15.63;10.85;;;;;;;;;;5035935;28;20025;-76
2023/08/26 04:37:46;;;;;;;12.50;11.07;;;;;;;;;;5035663;28;20040;-77
2023/08/26 04:40:14;;;;;;;12.52;11.23;;;;;;;;;;5015549;28;20048;-77
2023/08/26 04:42:40;;;;;;;12.55;11.27;;;;;;;;;;5034595;28;20045;-75
2023/08/26 04:45:06;;;;;;;14.27;10.82;;;;;;;;;;5033675;28;20045;-76
2023/08/26 04:47:31;;;;;;;11.60;10.50;;;;;;;;;;5035006;28;20041;-75
2023/08/26 04:49:56;;;;;;;11.13;10.13;;;;;;;;;;5032219;28;20033;-76
2023/08/26 04:52:22;;;;;;;12.20;11.00;;;;;;;;;;5034660;28;20029;-76
2023/08/26 04:54:47;;;;;;;12.77;11.48;;;;;;;;;;5034248;28;20432;-76
2023/08/26 04:57:12;;;;;;;13.50;12.20;;;;;;;;;;5033292;28;20356;-75
2023/08/26 04:59:38;;;;;;;13.77;12.38;;;;;;;;;;5033563;28;20029;-76
2023/08/26 05:02:06;;;;;;;13.40;11.93;;;;;;;;;;5035107;28;20060;-76
2023/08/26 05:04:31;;;;;;;13.80;12.50;;;;;;;;;;5032106;28;20087;-76
2023/08/26 05:06:57;;;;;;;13.20;11.90;;;;;;;;;;5034072;28;20033;-76
2023/08/26 05:09:22;;;;;;;12.00;10.90;;;;;;;;;;5033681;28;20092;-76
2023/08/26 05:11:47;;;;;;;11.50;10.48;;;;;;;;;;5034355;28;20060;-75
2023/08/26 05:14:13;;;;;;;12.07;10.88;;;;;;;;;;5034141;28;20037;-75
2023/08/26 05:16:38;;;;;;;11.50;10.30;;;;;;;;;;5033860;28;20429;-76
2023/08/26 05:19:03;;;;;;;11.65;10.20;;;;;;;;;;5034604;28;20028;-76
2023/08/26 05:21:30;;;;;;;11.98;10.73;;;;;;;;;;5035247;28;20032;-76
2023/08/26 05:23:55;;;;;;;12.00;10.77;;;;;;;;;;5034596;28;20037;-75
2023/08/26 05:26:20;;;;;;;12.27;11.02;;;;;;;;;;5035455;28;20083;-76
2023/08/26 05:28:46;;;;;;;12.63;11.50;;;;;;;;;;5037860;28;20072;-76
2023/08/26 05:31:11;;;;;;;13.98;12.52;;;;;;;;;;5035817;28;20394;-76
2023/08/26 05:33:36;;;;;;;12.60;11.45;;;;;;;;;;5038999;28;20095;-76
2023/08/26 05:36:02;;;;;;;11.93;10.82;;;;;;;;;;5037122;28;20091;-75
2023/08/26 05:38:27;;;;;;;12.95;11.85;;;;;;;;;;5037511;28;20025;-75
2023/08/26 05:40:53;;;;;;;11.40;10.40;;;;;;;;;;5036612;28;20040;-74
2023/08/26 05:43:18;;;;;;;11.65;10.50;;;;;;;;;;5038413;28;20044;-76
2023/08/26 05:45:43;;;;;;;12.23;11.10;;;;;;;;;;5038256;28;20072;-76
2023/08/26 05:48:09;;;;;;;12.60;11.35;;;;;;;;;;5036723;28;20709;-76
2023/08/26 05:50:35;;;;;;;12.75;11.55;;;;;;;;;;5036287;28;23480;-76
2023/08/26 05:53:00;;;;;;;11.60;10.52;;;;;;;;;;5036085;28;20033;-76
2023/08/26 05:55:25;;;;;;;12.65;11.45;;;;;;;;;;5037602;28;20040;-76
2023/08/26 05:57:51;;;;;;;11.73;10.63;;;;;;;;;;5035784;28;20057;-76
2023/08/26 06:00:17;;;;;;;12.57;11.02;;;;;;;;;;5036688;28;20029;-76
2023/08/26 06:02:42;;;;;;;12.25;11.05;;;;;;;;;;5036735;28;20033;-76
2023/08/26 06:05:07;;;;;;;12.10;11.02;;;;;;;;;;5036764;28;20108;-73
2023/08/26 06:07:33;;;;;;;12.02;10.18;;;;;;;;;;5035988;28;20035;-76
2023/08/26 06:09:58;;;;;;;12.07;10.85;;;;;;;;;;5036757;28;20032;-74
2023/08/26 06:12:23;;;;;;;10.88;9.88;;;;;;;;;;5034947;28;20033;-75
2023/08/26 06:14:49;;;;;;;11.18;10.15;;;;;;;;;;5036646;28;20025;-76
2023/08/26 06:17:14;;;;;;;11.63;10.43;;;;;;;;;;5037395;28;20033;-75
2023/08/26 06:19:39;;;;;;;12.52;10.40;;;;;;;;;;5036157;28;20475;-76
2023/08/26 06:22:05;;;;;;;14.13;9.88;;;;;;;;;;5036601;28;20057;-75
2023/08/26 06:24:30;;;;;;;11.80;10.70;;;;;;;;;;5035567;28;20042;-76
2023/08/26 06:26:55;;;;;;;12.30;10.52;;;;;;;;;;5038115;28;20029;-76
2023/08/26 06:29:23;;;;;;;12.05;10.93;;;;;;;;;;5036203;28;20084;-76
2023/08/26 06:31:48;;;;;;;11.60;10.50;;;;;;;;;;5036127;28;20445;-75
2023/08/26 06:34:13;;;;;;;12.48;10.88;;;;;;;;;;5035889;28;20033;-75
2023/08/26 06:36:40;;;;;;;11.25;10.25;;;;;;;;;;5035441;28;20056;-76
2023/08/26 06:39:05;;;;;;;11.27;10.27;;;;;;;;;;5035187;28;20416;-75
2023/08/26 06:41:32;;;;;;;10.73;9.73;;;;;;;;;;5035602;28;20130;-75
2023/08/26 06:43:58;;;;;;;11.80;10.70;;;;;;;;;;5036587;28;20037;-76
2023/08/26 06:46:23;;;;;;;13.93;10.45;;;;;;;;;;5038166;28;20055;-74
2023/08/26 06:48:49;;;;;;;11.85;10.02;;;;;;;;;;5036977;28;21121;-75
2023/08/26 06:51:14;;;;;;;11.40;10.30;;;;;;;;;;5037429;28;20074;-75
2023/08/26 06:53:39;;;;;;;11.68;10.48;;;;;;;;;;5036042;28;20367;-75
2023/08/26 06:56:05;;;;;;;11.50;10.40;;;;;;;;;;5036656;28;20034;-75
2023/08/26 06:58:30;;;;;;;11.20;10.10;;;;;;;;;;5027142;28;20033;-75
2023/08/26 07:00:55;;;;;;;11.55;10.38;;;;;;;;;;5035485;28;20028;-75
2023/08/26 07:03:21;;;;;;;11.48;10.38;;;;;;;;;;5036179;28;20085;-75
2023/08/26 07:05:47;;;;;;;10.30;9.30;;;;;;;;;;5036745;28;20029;-75
2023/08/26 07:08:12;;;;;;;10.48;9.43;;;;;;;;;;5035408;28;20037;-75
2023/08/26 07:10:38;;;;;;;18.33;9.65;;;;;;;;;;5037081;28;20440;-75
2023/08/26 07:13:03;;;;;;;11.02;9.60;;;;;;;;;;5036052;28;20036;-75
2023/08/26 07:15:29;;;;;;;10.13;9.23;;;;;;;;;;5028795;28;20380;-74
2023/08/26 07:17:54;;;;;;;10.00;9.02;;;;;;;;;;5036881;28;20029;-75
2023/08/26 07:20:20;;;;;;;10.05;8.98;;;;;;;;;;5022725;28;20408;-75
2023/08/26 07:22:46;;;;;;;9.70;8.80;;;;;;;;;;5023190;28;20495;-74
2023/08/26 07:25:11;;;;;;;11.68;8.70;;;;;;;;;;5032718;28;20047;-75
2023/08/26 07:27:38;;;;;;;9.43;8.60;;;;;;;;;;5026203;28;20104;-74
2023/08/26 07:30:04;;;;;;;9.30;8.50;;;;;;;;;;5036718;28;20040;-74
2023/08/26 07:32:29;;;;;;;9.88;8.88;;;;;;;;;;5035811;28;20498;-74
2023/08/26 07:34:54;;;;;;;9.48;8.48;;;;;;;;;;5035548;28;20040;-76
2023/08/26 07:37:20;;;;;;;9.10;8.25;;;;;;;;;;5034059;28;20032;-76
2023/08/26 07:39:45;;;;;;;11.98;8.57;;;;;;;;;;5035682;28;20036;-76
2023/08/26 07:42:10;;;;;;;9.85;8.85;;;;;;;;;;5033866;28;20500;-76
2023/08/26 07:44:36;;;;;;;9.18;8.38;;;;;;;;;;5034511;28;20523;-76
2023/08/26 07:47:01;;;;;;;10.00;9.02;;;;;;;;;;5054358;28;20051;-76
2023/08/26 07:49:26;;;;;;;9.93;8.60;;;;;;;;;;5074007;28;20031;-76
2023/08/26 07:51:52;;;;;;;10.20;9.20;;;;;;;;;;5072541;28;20490;-75
2023/08/26 07:54:17;;;;;;;9.32;8.43;;;;;;;;;;5075028;28;20355;-74
2023/08/26 07:56:42;;;;;;;11.57;8.88;;;;;;;;;;5074216;28;20031;-74
2023/08/26 07:59:08;;;;;;;9.73;8.82;;;;;;;;;;5075314;28;20024;-73
2023/08/26 08:01:33;;;;;;;10.00;8.98;;;;;;;;;;5074663;28;20031;-76
2023/08/26 08:03:58;;;;;;;9.32;8.30;;;;;;;;;;5074996;28;20036;-75
2023/08/26 08:06:24;;;;;;;10.48;9.20;;;;;;;;;;5074959;28;20044;-76
2023/08/26 08:08:49;;;;;;;9.82;8.95;;;;;;;;;;5075561;28;20047;-76
2023/08/26 08:11:14;;;;;;;10.00;8.43;;;;;;;;;;5074224;28;20028;-76
2023/08/26 08:13:40;;;;;;;9.45;8.55;;;;;;;;;;5076466;28;20998;-76
2023/08/26 08:16:05;;;;;;;8.77;7.95;;;;;;;;;;5072920;28;20032;-76
2023/08/26 08:18:30;;;;;;;9.90;7.55;;;;;;;;;;5073650;28;20458;-76
2023/08/26 08:20:56;;;;;;;8.88;8.00;;;;;;;;;;5073573;28;20027;-75
2023/08/26 08:23:21;;;;;;;8.20;7.30;;;;;;;;;;5073345;28;20044;-76
2023/08/26 08:25:47;;;;;;;7.93;7.22;;;;;;;;;;5075304;28;20401;-74
2023/08/26 08:28:12;;;;;;;7.95;7.15;;;;;;;;;;5074188;28;20040;-76
2023/08/26 08:30:38;;;;;;;7.93;7.20;;;;;;;;;;5073085;28;20028;-76
2023/08/26 08:33:03;;;;;;;8.02;7.22;;;;;;;;;;5072495;28;20339;-76
2023/08/26 08:35:29;;;;;;;8.57;7.78;;;;;;;;;;5075621;28;20678;-77
2023/08/26 08:37:55;;;;;;;9.35;7.15;;;;;;;;;;5074603;28;20028;-76
2023/08/26 08:40:20;;;;;;;8.05;6.88;;;;;;;;;;5074754;28;20455;-76
2023/08/26 08:42:47;;;;;;;8.10;7.30;;;;;;;;;;5073545;28;20043;-77
2023/08/26 08:45:13;;;;;;;9.80;7.00;;;;;;;;;;5073405;28;20102;-77
2023/08/26 08:47:38;;;;;;;7.18;6.47;;;;;;;;;;5073538;28;20044;-77
2023/08/26 08:50:03;;;;;;;8.70;7.13;;;;;;;;;;5056562;28;20035;-77
2023/08/26 08:52:29;;;;;;;9.68;6.82;;;;;;;;;;5073250;28;20586;-77
2023/08/26 08:54:54;;;;;;;8.23;7.20;;;;;;;;;;5072307;28;20067;-77
2023/08/26 08:57:23;;;;;;;8.25;7.00;;;;;;;;;;5074674;28;20053;-77
2023/08/26 08:59:48;;;;;;;8.20;7.45;;;;;;;;;;5073989;28;20028;-77
2023/08/26 09:02:14;;;;;;;7.28;6.57;;;;;;;;;;5076189;28;21472;-77
2023/08/26 09:04:40;;;;;;;7.20;6.60;;;;;;;;;;5077596;28;20367;-76
2023/08/26 09:07:06;;;;;;;8.23;7.40;;;;;;;;;;5078370;28;20367;-75
2023/08/26 09:09:31;;;;;;;7.60;6.97;;;;;;;;;;5079448;28;20028;-74
2023/08/26 09:11:58;;;;;;;7.88;6.60;;;;;;;;;;5077779;28;20051;-75
2023/08/26 09:14:23;;;;;;;10.35;7.30;;;;;;;;;;5079332;28;20028;-75
2023/08/26 09:16:48;;;;;;;9.35;7.03;;;;;;;;;;5076632;28;20038;-75
2023/08/26 09:19:14;;;;;;;7.07;6.47;;;;;;;;;;5075904;28;20035;-77
2023/08/26 09:21:46;;;;;;;6.90;6.20;;;;;;;;;;5079330;28;20081;-75
2023/08/26 09:24:15;;;;;;;7.40;6.80;;;;;;;;;;5078438;28;20063;-77
2023/08/26 09:26:56;;;;;;;7.32;6.63;;;;;;;;;;5078052;28;20173;-76
2023/08/26 09:29:21;;;;;;;9.35;6.90;;;;;;;;;;5076293;28;20121;-75
2023/08/26 09:31:47;;;;;;;8.30;6.70;;;;;;;;;;5078598;28;20053;-76
2023/08/26 09:34:21;;;;;;;8.18;7.38;;;;;;;;;;5078096;28;20114;-76
2023/08/26 09:36:47;;;;;;;7.53;6.88;;;;;;;;;;5078479;28;20012;-76
2023/08/26 09:39:13;;;;;;;7.40;6.80;;;;;;;;;;5076037;28;20457;-76
2023/08/26 09:41:40;;;;;;;10.38;6.78;;;;;;;;;;5076706;28;20020;-75
2023/08/26 09:44:06;;;;;;;6.95;6.32;;;;;;;;;;5077316;28;20032;-75
2023/08/26 09:46:36;;;;;;;6.93;6.32;;;;;;;;;;5075599;28;20039;-76
2023/08/26 09:49:05;;;;;;;7.00;5.75;;;;;;;;;;5076703;28;20435;-77
2023/08/26 09:51:30;;;;;;;;;;;;;;;;;;5078097;28;20591;-77
2023/08/26 09:53:56;;;;;;;8.33;6.97;;;;;;;;;;5076617;28;19912;-75
2023/08/26 09:56:22;;;;;;;7.03;6.32;;;;;;;;;;5076632;28;20020;-74
2023/08/26 09:58:48;;;;;;;7.25;6.68;;;;;;;;;;5075641;28;20016;-76
2023/08/26 10:01:14;;;;;;;7.78;6.97;;;;;;;;;;5076946;28;20436;-76
2023/08/26 10:03:43;;;;;;;9.00;6.45;;;;;;;;;;5077876;28;20024;-76
2023/08/26 10:06:09;;;;;;;7.45;6.75;;;;;;;;;;5074574;28;20454;-76
2023/08/26 10:08:36;;;;;;;7.55;6.82;;;;;;;;;;5078795;28;20027;-75
2023/08/26 10:11:03;;;;;;;7.05;6.45;;;;;;;;;;5075348;28;20031;-75
2023/08/26 10:13:29;;;;;;;7.65;7.05;;;;;;;;;;5076613;28;20036;-74
2023/08/26 10:15:55;;;;;;;8.20;6.75;;;;;;;;;;5076331;28;20023;-75
2023/08/26 10:18:24;;;;;;;8.50;6.80;;;;;;;;;;5075957;28;20036;-76
2023/08/26 10:20:49;;;;;;;7.07;6.43;;;;;;;;;;5076283;28;20020;-77
2023/08/26 10:23:15;;;;;;;7.55;6.82;;;;;;;;;;5075759;28;20020;-76
2023/08/26 10:25:41;;;;;;;7.28;6.35;;;;;;;;;;5077485;28;20070;-75
2023/08/26 10:28:06;;;;;;;7.78;7.00;;;;;;;;;;5076471;28;20082;-74
2023/08/26 10:30:32;;;;;;;8.13;7.22;;;;;;;;;;5075966;28;20024;-74
2023/08/26 10:33:01;;;;;;;8.55;6.82;;;;;;;;;;5077038;28;20084;-73
2023/08/26 10:35:27;;;;;;;8.00;7.30;;;;;;;;;;5075613;28;20031;-76
2023/08/26 10:38:07;;;;;;;7.25;6.75;;;;;;;;;;5076025;28;20035;-75
2023/08/26 10:40:32;;;;;;;7.85;6.57;;;;;;;;;;5077493;28;20277;-75
2023/08/26 10:43:05;;;;;;;7.65;6.97;;;;;;;;;;5074479;28;20351;-77
2023/08/26 10:45:30;;;;;;;7.97;6.82;;;;;;;;;;5076583;28;20032;-75
2023/08/26 10:47:56;;;;;;;8.13;6.95;;;;;;;;;;5075639;28;20059;-75
2023/08/26 10:50:22;;;;;;;7.95;6.97;;;;;;;;;;5074432;28;20065;-74
2023/08/26 10:52:53;;;;;;;7.78;7.07;;;;;;;;;;5075000;28;20320;-75
2023/08/26 10:55:20;;;;;;;7.05;6.35;;;;;;;;;;5074502;28;20062;-75
2023/08/26 10:58:01;;;;;;;10.15;6.78;;;;;;;;;;5074911;28;20070;-75
2023/08/26 11:00:27;;;;;;;10.05;6.80;;;;;;;;;;5074400;28;20024;-75
2023/08/26 11:02:54;;;;;;;7.45;6.65;;;;;;;;;;5075512;28;20036;-74
2023/08/26 11:05:20;;;;;;;6.93;6.30;;;;;;;;;;5074224;28;20719;-77
2023/08/26 11:07:45;;;;;;;7.20;6.57;;;;;;;;;;5074887;28;20048;-77
2023/08/26 11:10:27;;;;;;;8.70;6.93;;;;;;;;;;5073551;28;20037;-75
2023/08/26 11:12:52;;;;;;;7.05;6.45;;;;;;;;;;5075326;28;20515;-74
2023/08/26 11:15:17;;;;;;;6.70;6.10;;;;;;;;;;5074674;28;20127;-74
2023/08/26 11:17:43;;;;;;;7.40;6.70;;;;;;;;;;5073264;28;20024;-74
2023/08/26 11:20:08;;;;;;;8.00;6.47;;;;;;;;;;5075556;28;20028;-76
2023/08/26 11:22:34;;;;;;;8.05;6.68;;;;;;;;;;5076073;28;20672;-75
2023/08/26 11:24:59;;;;;;;7.40;6.80;;;;;;;;;;5074749;28;20067;-75
2023/08/26 11:27:25;;;;;;;7.45;6.78;;;;;;;;;;5074822;28;20036;-74
2023/08/26 11:29:50;;;;;;;7.25;6.57;;;;;;;;;;5077730;28;20739;-76
2023/08/26 11:32:15;;;;;;;7.00;6.30;;;;;;;;;;5074370;28;20348;-75
2023/08/26 11:34:41;;;;;;;7.85;6.68;;;;;;;;;;5075847;28;20425;-75
2023/08/26 11:37:06;;;;;;;8.90;6.38;;;;;;;;;;5075178;28;20071;-75
2023/08/26 11:39:34;;;;;;;6.53;6.03;;;;;;;;;;5074245;28;20028;-75
2023/08/26 11:42:10;;;;;;;7.68;6.47;;;;;;;;;;5076161;28;20386;-75
2023/08/26 11:44:36;;;;;;;7.38;6.72;;;;;;;;;;5071848;28;20141;-75
2023/08/26 11:47:01;;;;;;;7.60;6.55;;;;;;;;;;5076063;28;20067;-74
2023/08/26 11:49:27;;;;;;;7.68;6.97;;;;;;;;;;5072610;28;20034;-75
2023/08/26 11:51:52;;;;;;;8.07;6.68;;;;;;;;;;5074856;28;20463;-75
2023/08/26 11:54:24;;;;;;;7.85;6.72;;;;;;;;;;5074281;28;20032;-74
2023/08/26 11:56:50;;;;;;;6.95;6.25;;;;;;;;;;5074140;28;20032;-75
2023/08/26 11:59:19;;;;;;;7.00;6.40;;;;;;;;;;5073751;28;20032;-76
2023/08/26 12:01:45;;;;;;;8.00;6.43;;;;;;;;;;5075090;28;20020;-75
2023/08/26 12:04:15;;;;;;;7.15;6.55;;;;;;;;;;5073436;28;20102;-74
2023/08/26 12:06:41;;;;;;;7.28;6.57;;;;;;;;;;5074095;28;20024;-75
2023/08/26 12:09:06;;;;;;;7.20;6.47;;;;;;;;;;5074245;28;20027;-74
2023/08/26 12:11:34;;;;;;;8.15;6.68;;;;;;;;;;5073058;28;20056;-75
2023/08/26 12:14:00;;;;;;;6.82;6.22;;;;;;;;;;5071772;28;20027;-76
2023/08/26 12:16:25;;;;;;;7.25;6.55;;;;;;;;;;5074610;28;20158;-76
2023/08/26 12:18:53;;;;;;;9.57;7.03;;;;;;;;;;5074255;28;20024;-76
2023/08/26 12:21:19;;;;;;;8.63;7.43;;;;;;;;;;5071931;28;20032;-76
2023/08/26 12:23:46;;;;;;;7.20;6.53;;;;;;;;;;5074016;28;20344;-75
2023/08/26 12:26:12;;;;;;;7.30;6.70;;;;;;;;;;5074675;28;20127;-74
2023/08/26 12:28:39;;;;;;;10.45;6.60;;;;;;;;;;5074672;28;20018;-74
2023/08/26 12:31:05;;;;;;;7.32;6.72;;;;;;;;;;5073670;28;20050;-76
2023/08/26 12:33:30;;;;;;;7.72;7.00;;;;;;;;;;5070713;28;20359;-76
2023/08/26 12:35:55;;;;;;;10.93;7.65;;;;;;;;;;5074565;28;20028;-75
2023/08/26 12:38:21;;;;;;;7.03;6.47;;;;;;;;;;5077743;28;20037;-74
2023/08/26 12:40:49;;;;;;;8.13;7.22;;;;;;;;;;5076959;28;20369;-73
2023/08/26 12:43:15;;;;;;;8.35;7.40;;;;;;;;;;5078303;28;20059;-75
2023/08/26 12:45:40;;;;;;;7.00;6.32;;;;;;;;;;5076945;28;20150;-74
2023/08/26 12:48:06;;;;;;;7.57;6.80;;;;;;;;;;5077638;28;20060;-74
2023/08/26 12:50:31;;;;;;;9.38;7.30;;;;;;;;;;5078018;28;20024;-75
2023/08/26 12:52:57;;;;;;;7.78;6.85;;;;;;;;;;5077023;28;20355;-76
2023/08/26 12:55:22;;;;;;;7.72;7.00;;;;;;;;;;5077185;28;20039;-75
2023/08/26 12:57:48;;;;;;;8.02;6.72;;;;;;;;;;5077114;28;20024;-76
2023/08/26 13:00:13;;;;;;;7.07;6.47;;;;;;;;;;5077178;28;20022;-74
2023/08/26 13:02:39;;;;;;;7.70;6.50;;;;;;;;;;5079293;28;20032;-75
2023/08/26 13:05:06;;;;;;;7.55;6.75;;;;;;;;;;5076764;28;20036;-74
2023/08/26 13:07:31;;;;;;;7.88;7.13;;;;;;;;;;5075008;28;20024;-74
2023/08/26 13:09:56;;;;;;;7.13;6.43;;;;;;;;;;5076663;28;20024;-74
2023/08/26 13:12:22;;;;;;;8.00;7.20;;;;;;;;;;5077918;28;20439;-74
2023/08/26 13:14:47;;;;;;;12.20;7.30;;;;;;;;;;5076162;28;20072;-75
2023/08/26 13:17:12;;;;;;;8.18;6.90;;;;;;;;;;5078003;28;20025;-74
2023/08/26 13:19:38;;;;;;;7.78;7.03;;;;;;;;;;5076285;28;20029;-75
2023/08/26 13:22:03;;;;;;;8.43;7.72;;;;;;;;;;5077080;28;20016;-75
2023/08/26 13:24:28;;;;;;;9.30;7.55;;;;;;;;;;5078703;28;20036;-73
2023/08/26 13:26:54;;;;;;;8.45;7.03;;;;;;;;;;5076653;28;23210;-74
2023/08/26 13:29:19;;;;;;;9.93;7.72;;;;;;;;;;5078584;28;20359;-73
2023/08/26 13:31:45;;;;;;;7.80;7.00;;;;;;;;;;5077521;28;20031;-74
2023/08/26 13:34:10;;;;;;;7.00;6.40;;;;;;;;;;5075200;28;20362;-74
2023/08/26 13:36:37;;;;;;;8.00;7.30;;;;;;;;;;5078820;28;20052;-74
2023/08/26 13:39:03;;;;;;;8.45;7.65;;;;;;;;;;5077762;28;20028;-74
2023/08/26 13:41:29;;;;;;;8.07;7.28;;;;;;;;;;5077405;28;20032;-76
2023/08/26 13:43:54;;;;;;;9.23;7.47;;;;;;;;;;5076946;28;20437;-76
2023/08/26 13:46:20;;;;;;;8.10;7.40;;;;;;;;;;5076244;28;20102;-75
2023/08/26 13:48:45;;;;;;;10.05;6.60;;;;;;;;;;5075621;28;20032;-74
2023/08/26 13:51:10;;;;;;;10.27;7.03;;;;;;;;;;5078473;28;20024;-73
2023/08/26 13:53:36;;;;;;;9.77;6.88;;;;;;;;;;5077137;28;20261;-76
2023/08/26 13:56:01;;;;;;;8.15;7.07;;;;;;;;;;5077971;28;20015;-75
2023/08/26 13:58:26;;;;;;;8.00;7.30;;;;;;;;;;5073888;28;20043;-75
2023/08/26 14:00:58;;;;;;;11.95;6.72;;;;;;;;;;5075914;28;20031;-76
2023/08/26 14:03:27;;;;;;;7.82;7.00;;;;;;;;;;5076514;28;21054;-75
2023/08/26 14:05:52;;;;;;;9.80;6.63;;;;;;;;;;5074234;28;20122;-77
2023/08/26 14:08:18;;;;;;;7.47;6.88;;;;;;;;;;5078643;28;20347;-74
2023/08/26 14:10:43;;;;;;;7.47;6.75;;;;;;;;;;5076198;28;20021;-75
2023/08/26 14:13:09;;;;;;;7.78;6.97;;;;;;;;;;5077359;28;20024;-77
2023/08/26 14:15:38;;;;;;;8.57;7.28;;;;;;;;;;5075480;28;20047;-75
2023/08/26 14:18:03;;;;;;;9.13;7.18;;;;;;;;;;5076039;28;20151;-76
2023/08/26 14:20:29;;;;;;;7.30;6.60;;;;;;;;;;5076564;28;20029;-75